Time;durP1;ratioP1;P1;durP2;ratioP2;P2;SDS_P1;SDS_P2;PMS_P1;PMS_P2;Temp;Humidity;BMP_temperature;BMP_pressure;BME280_temperature;BME280_humidity;BME280_pressure;Samples;Min_cycle;Max_cycle;Signal;HPM_P1;HPM_P2
2023/10/14 00:03:50;;;;;;;3.20;1.90;;;;;;;7.00;85.58;99361.97;10557793;28;20043;-77
2023/10/14 00:13:56;;;;;;;3.95;1.38;;;;;;;6.75;86.07;99278.50;10532792;28;20059;-76
2023/10/14 00:19:03;;;;;;;2.78;1.35;;;;;;;6.72;86.04;99284.53;10534511;28;20443;-78
2023/10/14 00:24:06;;;;;;;2.83;1.20;;;;;;;6.67;87.03;99260.88;10531111;28;20036;-77
2023/10/14 00:34:25;;;;;;;3.28;1.45;;;;;;;6.77;86.80;99252.59;10556535;28;20039;-77
2023/10/14 00:39:28;;;;;;;1.73;1.35;;;;;;;6.69;87.29;99214.22;10577395;28;20070;-76
2023/10/14 00:44:46;;;;;;;0.98;0.73;;;;;;;6.71;87.23;99185.56;10528580;28;20043;-77
2023/10/14 00:50:20;;;;;;;2.80;1.13;;;;;;;6.65;87.36;99171.22;10498022;28;20048;-77
2023/10/14 00:55:46;;;;;;;4.40;1.60;;;;;;;6.66;87.19;99144.75;10488849;28;20401;-76
2023/10/14 01:00:58;;;;;;;2.35;0.85;;;;;;;6.81;86.76;99136.41;10481701;28;20036;-77
2023/10/14 01:06:23;;;;;;;2.78;0.70;;;;;;;6.99;85.85;99128.53;10546996;28;20038;-76
2023/10/14 01:11:35;;;;;;;12.88;1.05;;;;;;;7.10;85.07;99099.97;10491516;28;20047;-76
2023/10/14 01:16:41;;;;;;;3.10;0.90;;;;;;;7.09;84.97;99068.34;10508095;28;20036;-77
2023/10/14 01:21:52;;;;;;;4.85;1.05;;;;;;;7.01;85.44;99047.22;10543471;28;20130;-76
2023/10/14 01:27:05;;;;;;;2.85;1.10;;;;;;;7.05;84.42;99020.97;10487025;28;20070;-77
2023/10/14 01:32:26;;;;;;;4.30;1.40;;;;;;;6.99;85.82;99011.25;10525946;28;20420;-75
2023/10/14 01:37:56;;;;;;;4.38;1.33;;;;;;;6.86;86.30;98986.34;10509935;28;20040;-76
2023/10/14 01:43:04;;;;;;;4.03;1.08;;;;;;;6.75;87.81;99001.25;10548715;28;20061;-76
2023/10/14 01:48:14;;;;;;;3.70;1.10;;;;;;;6.74;89.13;98966.91;10511023;28;20039;-76
2023/10/14 01:53:18;;;;;;;6.18;1.25;;;;;;;6.75;91.26;98941.28;10491819;28;20508;-77
2023/10/14 01:58:22;;;;;;;2.63;1.05;;;;;;;6.48;93.47;98914.75;10477056;28;20036;-78
2023/10/14 02:03:24;;;;;;;5.10;1.10;;;;;;;6.31;95.31;98879.84;10484583;28;20049;-77
2023/10/14 02:08:27;;;;;;;5.00;1.00;;;;;;;6.12;96.27;98856.47;10491455;28;20045;-77
2023/10/14 02:13:29;;;;;;;3.38;1.00;;;;;;;6.08;97.52;98839.91;10505854;28;20035;-77
2023/10/14 02:18:31;;;;;;;6.20;1.48;;;;;;;6.11;98.64;98805.84;10508742;28;20040;-75
2023/10/14 02:23:49;;;;;;;5.00;1.40;;;;;;;6.10;99.70;98793.31;10495314;28;20039;-76
2023/10/14 02:28:55;;;;;;;;;;;;;;;6.02;100.00;98762.13;10513478;28;22726;-77
2023/10/14 02:34:05;;;;;;;4.85;1.13;;;;;;;5.98;100.00;98748.28;10505677;28;19924;-76
2023/10/14 02:39:17;;;;;;;3.83;1.20;;;;;;;5.93;100.00;98770.16;10539012;28;20040;-78
2023/10/14 02:44:28;;;;;;;3.30;1.13;;;;;;;6.03;100.00;98780.06;10534532;28;20071;-75
2023/10/14 02:49:40;;;;;;;10.85;1.00;;;;;;;5.93;100.00;98780.25;10507431;28;20039;-76
2023/10/14 02:54:54;;;;;;;6.20;1.40;;;;;;;5.99;100.00;98768.97;10516678;28;20043;-77
2023/10/14 02:59:56;;;;;;;4.70;1.38;;;;;;;5.98;100.00;98720.25;10573124;28;20042;-77
2023/10/14 03:10:19;;;;;;;4.25;1.08;;;;;;;5.88;100.00;98677.66;10497350;28;20134;-76
2023/10/14 03:15:22;;;;;;;3.33;1.10;;;;;;;5.87;100.00;98654.25;10483001;28;20063;-77
2023/10/14 03:25:34;;;;;;;3.40;0.82;;;;;;;5.94;100.00;98615.81;10512520;28;20052;-77
2023/10/14 03:30:44;;;;;;;1.40;0.90;;;;;;;5.99;100.00;98591.22;10515408;28;20047;-77
2023/10/14 03:36:04;;;;;;;3.85;0.90;;;;;;;5.99;100.00;98580.31;10521168;28;20037;-75
2023/10/14 03:46:15;;;;;;;1.38;0.75;;;;;;;6.11;100.00;98539.78;10539200;28;20044;-76
2023/10/14 03:51:27;;;;;;;2.90;0.90;;;;;;;6.15;100.00;98510.03;10525989;28;20048;-76
2023/10/14 03:56:31;;;;;;;0.65;0.47;;;;;;;6.13;100.00;98494.00;10526501;28;20059;-75
2023/10/14 04:06:42;;;;;;;2.47;0.70;;;;;;;6.29;100.00;98500.75;10506370;28;20051;-76
2023/10/14 04:11:47;;;;;;;1.95;0.80;;;;;;;6.42;100.00;98458.25;10512050;28;20479;-76
2023/10/14 04:17:09;;;;;;;2.60;1.00;;;;;;;6.49;100.00;98466.78;10540835;28;20043;-76
2023/10/14 04:32:42;;;;;;;1.05;0.70;;;;;;;6.70;100.00;98431.69;10539643;28;20043;-76
2023/10/14 04:37:53;;;;;;;1.20;0.60;;;;;;;6.79;100.00;98421.66;10549406;28;20047;-75
2023/10/14 04:42:55;;;;;;;2.80;0.65;;;;;;;6.86;100.00;98411.13;10519694;28;20055;-74
2023/10/14 04:48:05;;;;;;;1.10;0.75;;;;;;;7.04;100.00;98392.94;10515898;28;20032;-75
2023/10/14 04:53:17;;;;;;;2.40;0.70;;;;;;;7.21;100.00;98371.22;10535045;28;20035;-75
2023/10/14 04:58:25;;;;;;;0.85;0.32;;;;;;;7.33;100.00;98362.44;10535268;28;20039;-76
2023/10/14 05:03:32;;;;;;;1.75;0.60;;;;;;;7.50;100.00;98358.97;10510164;28;20043;-76
2023/10/14 05:08:51;;;;;;;0.55;0.50;;;;;;;7.57;100.00;98356.56;10492784;28;20055;-75
2023/10/14 05:14:09;;;;;;;2.15;0.77;;;;;;;7.53;100.00;98369.25;10542760;28;20056;-76
2023/10/14 05:19:15;;;;;;;1.15;0.50;;;;;;;7.66;100.00;98345.69;10515449;28;20032;-75
2023/10/14 05:24:17;;;;;;;0.68;0.60;;;;;;;7.66;100.00;98346.47;10530265;28;20139;-75
2023/10/14 05:29:19;;;;;;;1.45;0.60;;;;;;;7.80;100.00;98336.22;10522175;28;20040;-75
2023/10/14 05:34:22;;;;;;;2.63;0.60;;;;;;;7.89;100.00;98340.88;10527871;28;20032;-75
2023/10/14 05:39:25;;;;;;;0.50;0.50;;;;;;;7.98;100.00;98323.38;10517286;28;20056;-76
2023/10/14 05:44:27;;;;;;;0.50;0.50;;;;;;;7.97;100.00;98305.38;10549006;28;20059;-76
2023/10/14 05:49:31;;;;;;;3.40;0.85;;;;;;;8.01;100.00;98320.03;10549246;28;20032;-76
2023/10/14 05:54:34;;;;;;;0.95;0.50;;;;;;;8.08;100.00;98311.34;10544889;28;20044;-75
2023/10/14 05:59:37;;;;;;;0.85;0.60;;;;;;;8.11;100.00;98295.09;10509820;28;20036;-75
2023/10/14 06:04:40;;;;;;;0.50;0.50;;;;;;;8.19;100.00;98285.31;10549389;28;20415;-74
2023/10/14 06:09:45;;;;;;;0.47;0.40;;;;;;;8.27;100.00;98283.69;10554555;28;20032;-75
2023/10/14 06:14:48;;;;;;;0.57;0.57;;;;;;;8.31;100.00;98288.19;10535273;28;20033;-75
2023/10/14 06:19:53;;;;;;;1.08;0.50;;;;;;;8.43;100.00;98282.09;10468627;28;20518;-77
2023/10/14 06:24:56;;;;;;;1.02;0.60;;;;;;;8.48;100.00;98273.72;10532331;28;20044;-75
2023/10/14 06:29:58;;;;;;;2.00;0.80;;;;;;;8.51;100.00;98259.41;10551173;28;20058;-76
2023/10/14 06:35:02;;;;;;;0.40;0.40;;;;;;;8.63;100.00;98261.47;10527538;28;20139;-76
2023/10/14 06:40:11;;;;;;;1.15;0.70;;;;;;;8.69;100.00;98254.69;10497248;28;20059;-77
2023/10/14 06:45:17;;;;;;;1.33;0.65;;;;;;;8.80;100.00;98250.47;10531666;28;20052;-75
2023/10/14 06:50:23;;;;;;;1.10;0.93;;;;;;;8.94;100.00;98250.25;10565467;28;20511;-75
2023/10/14 06:55:27;;;;;;;3.03;0.98;;;;;;;9.07;100.00;98260.16;10524604;28;20522;-76
2023/10/14 07:00:32;;;;;;;2.25;1.50;;;;;;;9.12;100.00;98257.25;10528305;28;20086;-76
2023/10/14 07:05:43;;;;;;;1.67;1.30;;;;;;;9.22;100.00;98245.94;10550038;28;20036;-77
2023/10/14 07:10:47;;;;;;;1.48;1.38;;;;;;;9.25;100.00;98234.31;10533075;28;20052;-75
2023/10/14 07:15:50;;;;;;;1.65;1.40;;;;;;;9.40;100.00;98238.41;10513184;28;20048;-77
2023/10/14 07:21:03;;;;;;;3.00;1.40;;;;;;;9.43;100.00;98226.81;10514050;28;20028;-76
2023/10/14 07:26:09;;;;;;;2.38;1.60;;;;;;;9.53;100.00;98229.13;10479235;28;20036;-76
2023/10/14 07:31:12;;;;;;;2.33;1.42;;;;;;;9.61;100.00;98225.53;10512105;28;20043;-76
2023/10/14 07:36:15;;;;;;;3.95;1.73;;;;;;;9.71;100.00;98213.38;10507532;28;20039;-75
2023/10/14 07:41:19;;;;;;;4.00;2.00;;;;;;;9.81;100.00;98202.03;10518478;28;20043;-76
2023/10/14 07:46:21;;;;;;;3.15;1.90;;;;;;;9.92;100.00;98192.25;10528747;28;20512;-77
2023/10/14 07:51:23;;;;;;;5.18;2.90;;;;;;;10.11;100.00;98189.00;10537209;28;20040;-76
2023/10/14 07:56:25;;;;;;;3.50;2.25;;;;;;;10.20;100.00;98172.47;10555497;28;20036;-76
2023/10/14 08:01:27;;;;;;;3.85;1.77;;;;;;;10.34;100.00;98172.19;10552014;28;20040;-75
2023/10/14 08:06:31;;;;;;;5.53;2.42;;;;;;;10.47;100.00;98162.84;10535803;28;20032;-75
2023/10/14 08:11:37;;;;;;;4.13;2.40;;;;;;;10.60;100.00;98164.47;10537717;28;20048;-76
2023/10/14 08:16:39;;;;;;;2.90;2.00;;;;;;;10.74;100.00;98167.66;10507653;28;20059;-76
2023/10/14 08:21:42;;;;;;;2.95;2.30;;;;;;;10.91;100.00;98149.38;10521005;28;20036;-75
2023/10/14 08:26:46;;;;;;;4.13;2.40;;;;;;;11.03;100.00;98150.16;10476834;28;20036;-76
2023/10/14 08:31:53;;;;;;;4.28;2.20;;;;;;;11.15;100.00;98155.66;10530892;28;20036;-76
2023/10/14 08:36:56;;;;;;;5.90;3.03;;;;;;;11.28;100.00;98158.34;10506307;28;20036;-75
2023/10/14 08:42:04;;;;;;;4.22;2.55;;;;;;;11.41;100.00;98143.47;10509968;28;20052;-76
2023/10/14 08:47:13;;;;;;;4.47;2.75;;;;;;;11.52;100.00;98141.84;10520936;28;20032;-74
2023/10/14 08:52:18;;;;;;;4.13;2.20;;;;;;;11.69;100.00;98130.56;10507593;28;20374;-73
2023/10/14 08:57:22;;;;;;;3.38;2.35;;;;;;;11.87;100.00;98116.53;10528351;28;20028;-77
2023/10/14 09:02:25;;;;;;;3.58;2.20;;;;;;;12.05;100.00;98120.56;10517534;28;20037;-75
2023/10/14 09:07:31;;;;;;;4.95;2.83;;;;;;;12.21;100.00;98110.41;10526805;28;20051;-70
2023/10/14 09:12:33;;;;;;;4.25;2.47;;;;;;;12.34;100.00;98102.88;10534953;28;20044;-69
2023/10/14 09:17:36;;;;;;;4.75;2.30;;;;;;;12.43;100.00;98102.69;10538582;28;20040;-70
2023/10/14 09:22:38;;;;;;;3.95;2.17;;;;;;;12.60;100.00;98094.84;10556795;28;20120;-73
2023/10/14 09:27:48;;;;;;;2.90;2.22;;;;;;;12.66;100.00;98098.13;10508466;28;20048;-68
2023/10/14 09:32:51;;;;;;;4.55;2.60;;;;;;;12.69;100.00;98083.69;10543371;28;20043;-69
2023/10/14 09:37:54;;;;;;;5.90;2.85;;;;;;;12.71;100.00;98075.88;10554407;28;20521;-72
2023/10/14 09:42:57;;;;;;;3.92;1.90;;;;;;;12.73;100.00;98079.06;10566009;28;20704;-71
2023/10/14 09:48:02;;;;;;;4.05;2.35;;;;;;;12.84;100.00;98071.03;10563762;28;20040;-71
2023/10/14 09:53:05;;;;;;;7.18;3.03;;;;;;;12.90;100.00;98064.91;10530330;28;20028;-71
2023/10/14 09:58:08;;;;;;;4.40;2.97;;;;;;;13.01;100.00;98075.34;10533148;28;20036;-68
2023/10/14 10:03:11;;;;;;;5.65;2.97;;;;;;;13.10;100.00;98067.69;10547134;28;20032;-68
2023/10/14 10:08:22;;;;;;;4.95;2.75;;;;;;;13.13;100.00;98056.72;10525779;28;20035;-71
2023/10/14 10:13:28;;;;;;;6.43;3.00;;;;;;;13.20;100.00;98056.13;10513412;28;20044;-70
2023/10/14 10:18:59;;;;;;;4.57;2.92;;;;;;;13.28;100.00;98041.34;10495498;28;20511;-70
2023/10/14 10:24:24;;;;;;;6.22;2.92;;;;;;;13.34;100.00;98042.63;10526899;28;20028;-67
2023/10/14 10:29:33;;;;;;;7.90;3.03;;;;;;;13.39;100.00;98039.63;10522813;28;20063;-73
2023/10/14 10:35:05;;;;;;;19.27;6.68;;;;;;;13.43;100.00;98007.41;10493080;28;20048;-88
2023/10/14 10:40:11;;;;;;;7.40;4.22;;;;;;;13.54;100.00;98010.38;10510612;28;20052;-83
2023/10/14 10:45:21;;;;;;;6.70;3.72;;;;;;;13.57;100.00;98002.19;10501709;28;20047;-73
2023/10/14 10:50:38;;;;;;;5.75;2.42;;;;;;;13.55;100.00;97981.69;10523930;28;20036;-70
2023/10/14 10:55:43;;;;;;;6.20;3.13;;;;;;;13.64;100.00;97973.16;10553865;28;20032;-73
2023/10/14 11:00:47;;;;;;;4.10;2.50;;;;;;;13.67;100.00;97951.16;10527589;28;20040;-74
2023/10/14 11:05:50;;;;;;;3.03;1.95;;;;;;;13.73;100.00;97944.22;10542768;22;20056;-69
2023/10/14 11:10:56;;;;;;;4.57;2.03;;;;;;;13.85;100.00;97941.25;10523679;28;20063;-69
2023/10/14 11:16:11;;;;;;;4.15;1.95;;;;;;;13.93;100.00;97946.91;10547090;28;20044;-68
2023/10/14 11:21:17;;;;;;;3.35;2.33;;;;;;;13.94;100.00;97941.00;10483193;23;20132;-74
2023/10/14 11:26:20;;;;;;;5.95;3.33;;;;;;;13.96;100.00;97941.44;10464732;28;20041;-73
2023/10/14 11:31:24;;;;;;;2.45;1.88;;;;;;;13.99;100.00;97935.19;10482351;28;20550;-74
2023/10/14 11:36:26;;;;;;;8.20;3.22;;;;;;;14.05;100.00;97919.91;10469715;28;20041;-75
2023/10/14 11:41:30;;;;;;;5.00;3.03;;;;;;;14.07;100.00;97920.34;10402450;28;20046;-74
2023/10/14 11:46:39;;;;;;;9.55;3.22;;;;;;;14.03;100.00;97916.72;10427186;28;20034;-75
2023/10/14 11:51:43;;;;;;;3.40;2.42;;;;;;;14.03;100.00;97908.44;10404519;28;20513;-73
2023/10/14 11:56:45;;;;;;;5.95;3.00;;;;;;;14.05;100.00;97897.84;10405542;28;20234;-74
2023/10/14 12:01:48;;;;;;;9.27;3.45;;;;;;;14.05;100.00;97892.31;10414691;28;20521;-73
2023/10/14 12:06:50;;;;;;;5.43;3.40;;;;;;;14.10;100.00;97881.00;10439103;28;20041;-74
2023/10/14 12:12:02;;;;;;;6.35;3.40;;;;;;;14.11;100.00;97887.31;10389184;28;20049;-73
2023/10/14 12:17:06;;;;;;;5.32;3.13;;;;;;;14.08;100.00;97855.75;10436586;28;20049;-66
2023/10/14 12:22:10;;;;;;;6.32;3.53;;;;;;;14.07;100.00;97848.66;10365815;28;20041;-66
2023/10/14 12:27:15;;;;;;;6.43;3.17;;;;;;;14.03;100.00;97852.50;10455585;23;20048;-64
2023/10/14 12:32:17;;;;;;;5.43;3.08;;;;;;;14.00;100.00;97843.03;10512308;28;20041;-64
2023/10/14 12:37:21;;;;;;;5.45;2.88;;;;;;;14.02;100.00;97829.66;10521145;28;20039;-64
2023/10/14 12:42:38;;;;;;;5.45;3.38;;;;;;;14.01;100.00;97836.34;10589071;22;20055;-64
2023/10/14 12:47:48;;;;;;;4.97;3.17;;;;;;;14.02;100.00;97815.88;10604205;28;20137;-66
2023/10/14 12:52:58;;;;;;;4.38;2.92;;;;;;;14.05;100.00;97815.13;10577094;28;20040;-67
2023/10/14 12:58:01;;;;;;;5.72;3.60;;;;;;;14.06;100.00;97802.16;10589975;27;20040;-67
2023/10/14 13:03:09;;;;;;;6.28;3.03;;;;;;;14.14;100.00;97788.06;10599895;28;20035;-67
2023/10/14 13:08:11;;;;;;;5.93;3.53;;;;;;;14.29;100.00;97783.53;10602831;28;20053;-66
2023/10/14 13:13:15;;;;;;;7.50;3.15;;;;;;;14.27;100.00;97754.75;10568526;22;20053;-65
2023/10/14 13:18:18;;;;;;;6.22;3.05;;;;;;;14.22;100.00;97763.34;10507016;28;20044;-66
2023/10/14 13:23:20;;;;;;;3.35;2.55;;;;;;;14.15;100.00;97755.78;10486313;28;20047;-67
2023/10/14 13:28:23;;;;;;;4.28;2.72;;;;;;;14.09;100.00;97735.22;10525644;22;20056;-65
2023/10/14 13:33:25;;;;;;;6.40;3.40;;;;;;;14.06;100.00;97752.53;10554833;28;20040;-66
2023/10/14 13:38:27;;;;;;;4.50;3.13;;;;;;;14.11;100.00;97749.44;10532799;28;20045;-67
2023/10/14 13:43:29;;;;;;;5.45;2.90;;;;;;;14.11;100.00;97743.91;10510301;28;20037;-66
2023/10/14 13:48:33;;;;;;;3.28;2.50;;;;;;;14.13;100.00;97736.84;10533640;22;20068;-72
2023/10/14 13:53:36;;;;;;;5.65;2.65;;;;;;;14.16;100.00;97713.25;10557562;23;20056;-66
2023/10/14 13:58:38;;;;;;;4.60;2.75;;;;;;;14.10;100.00;97707.28;10517150;28;20044;-66
2023/10/14 14:03:41;;;;;;;4.45;2.50;;;;;;;14.14;100.00;97715.59;10543135;28;20036;-66
2023/10/14 14:08:50;;;;;;;4.10;2.20;;;;;;;14.18;100.00;97680.56;10589714;22;20534;-66
2023/10/14 14:13:57;;;;;;;5.35;2.40;;;;;;;14.19;100.00;97668.34;10576590;28;20032;-66
2023/10/14 14:19:00;;;;;;;4.77;3.07;;;;;;;13.82;100.00;97842.75;10587599;28;20043;-66
2023/10/14 14:24:04;;;;;;;1.55;1.10;;;;;;;12.49;100.00;97867.47;10581700;28;20036;-66
2023/10/14 14:29:09;;;;;;;2.75;1.15;;;;;;;11.73;100.00;97864.97;10573740;28;20040;-65
2023/10/14 14:34:12;;;;;;;6.15;3.03;;;;;;;11.38;100.00;97856.66;10580352;28;20044;-65
2023/10/14 14:39:15;;;;;;;1.30;0.80;;;;;;;11.18;100.00;97864.00;10564528;22;20060;-69
2023/10/14 14:44:17;;;;;;;2.00;0.60;;;;;;;11.02;100.00;97887.88;10547217;28;20804;-71
2023/10/14 14:49:22;;;;;;;1.15;0.80;;;;;;;10.94;100.00;97879.81;10534353;28;20546;-71
2023/10/14 14:54:25;;;;;;;1.17;0.60;;;;;;;10.80;100.00;97886.50;10544849;22;20052;-65
2023/10/14 14:59:28;;;;;;;2.67;0.60;;;;;;;10.74;100.00;97898.06;10523433;28;20051;-65
2023/10/14 15:04:30;;;;;;;3.28;1.70;;;;;;;10.71;100.00;97909.75;10518329;28;20412;-66
2023/10/14 15:09:33;;;;;;;4.00;1.55;;;;;;;10.61;100.00;97921.22;10550465;22;20051;-65
2023/10/14 15:14:38;;;;;;;3.50;1.42;;;;;;;10.57;100.00;97926.56;10547943;28;20032;-65
2023/10/14 15:19:42;;;;;;;2.00;1.15;;;;;;;10.43;100.00;97954.38;10561825;28;20051;-66
2023/10/14 15:24:44;;;;;;;3.05;2.13;;;;;;;10.30;100.00;97966.50;10573909;22;20051;-65
2023/10/14 15:29:48;;;;;;;1.58;0.63;;;;;;;10.30;100.00;97982.97;10544049;28;20071;-65
2023/10/14 15:34:51;;;;;;;1.95;0.80;;;;;;;10.33;99.24;97978.72;10534100;28;20048;-66
2023/10/14 15:39:53;;;;;;;3.88;0.90;;;;;;;10.32;99.01;97996.31;10546695;22;20071;-65
2023/10/14 15:44:56;;;;;;;2.78;1.25;;;;;;;10.27;99.79;98011.06;10518608;28;20025;-66
2023/10/14 15:50:00;;;;;;;2.40;1.42;;;;;;;10.17;100.00;98022.44;10520759;28;20045;-66
2023/10/14 15:55:03;;;;;;;3.80;1.25;;;;;;;10.11;100.00;98026.56;10521182;28;20036;-66
2023/10/14 16:00:09;;;;;;;1.10;0.70;;;;;;;10.01;100.00;98048.91;10523214;28;20039;-65
2023/10/14 16:05:12;;;;;;;1.77;1.00;;;;;;;9.85;100.00;98052.28;10526036;28;20032;-65
2023/10/14 16:10:15;;;;;;;2.08;1.00;;;;;;;9.81;100.00;98058.81;10535734;23;20048;-75
2023/10/14 16:15:18;;;;;;;2.72;0.80;;;;;;;9.74;100.00;98075.78;10499089;28;20032;-74
2023/10/14 16:20:23;;;;;;;1.95;0.50;;;;;;;9.76;100.00;98089.94;10478327;28;20610;-74
2023/10/14 16:25:25;;;;;;;1.58;0.85;;;;;;;9.71;100.00;98084.66;10512650;28;20040;-74
2023/10/14 16:30:30;;;;;;;3.15;1.05;;;;;;;9.66;100.00;98095.84;10518463;28;20037;-72
2023/10/14 16:35:33;;;;;;;2.22;0.80;;;;;;;9.62;98.44;98117.63;10509226;28;20041;-73
2023/10/14 16:40:36;;;;;;;1.60;0.60;;;;;;;9.57;97.64;98119.78;10460898;28;20044;-72
2023/10/14 16:45:40;;;;;;;2.20;0.60;;;;;;;9.74;98.14;98125.09;10481351;28;20036;-72
2023/10/14 16:50:43;;;;;;;1.45;0.63;;;;;;;9.71;97.64;98138.63;10478340;28;20560;-74
2023/10/14 16:55:46;;;;;;;3.58;0.93;;;;;;;9.53;96.40;98141.53;10478227;28;20041;-73
2023/10/14 17:00:50;;;;;;;2.70;0.90;;;;;;;9.43;94.64;98138.41;10466920;28;20040;-78
2023/10/14 17:05:54;;;;;;;3.65;1.33;;;;;;;9.28;95.17;98153.50;10469786;28;20041;-74
2023/10/14 17:10:57;;;;;;;2.55;0.80;;;;;;;9.29;94.20;98163.31;10461508;28;20046;-73
2023/10/14 17:16:00;;;;;;;2.58;0.60;;;;;;;9.28;93.58;98154.28;10465234;28;20573;-72
2023/10/14 17:21:02;;;;;;;1.25;0.75;;;;;;;9.24;92.92;98164.31;10478879;28;20043;-73
2023/10/14 17:26:06;;;;;;;3.30;0.55;;;;;;;9.21;92.43;98162.25;10478906;28;20048;-74
2023/10/14 17:31:09;;;;;;;0.65;0.52;;;;;;;9.10;92.81;98152.81;10457486;28;20428;-73
2023/10/14 17:36:12;;;;;;;1.80;0.60;;;;;;;9.15;91.74;98155.34;10465759;28;20040;-74
2023/10/14 17:41:18;;;;;;;2.05;0.70;;;;;;;9.07;91.65;98170.69;10486916;22;1165552;-65
2023/10/14 17:46:23;;;;;;;2.55;0.68;;;;;;;9.02;90.10;98183.75;10564044;28;20039;-65
2023/10/14 17:51:26;;;;;;;0.60;0.30;;;;;;;9.02;89.13;98175.53;10562112;28;20423;-65
2023/10/14 17:56:29;;;;;;;2.42;0.50;;;;;;;9.02;88.19;98175.53;10524862;23;20083;-75
2023/10/14 18:01:31;;;;;;;1.48;0.40;;;;;;;9.01;87.72;98173.94;10517939;28;20052;-75
2023/10/14 18:06:35;;;;;;;3.58;0.80;;;;;;;8.94;88.92;98187.34;10501683;28;20036;-75
2023/10/14 18:11:37;;;;;;;2.42;1.08;;;;;;;8.98;88.09;98178.13;10533708;22;20056;-66
2023/10/14 18:16:42;;;;;;;1.73;1.00;;;;;;;8.98;88.68;98191.00;10543241;28;20039;-65
2023/10/14 18:21:44;;;;;;;1.20;0.57;;;;;;;8.89;89.04;98203.94;10530095;28;20422;-64
2023/10/14 18:26:51;;;;;;;0.63;0.47;;;;;;;8.85;89.72;98194.78;10487568;22;20053;-72
2023/10/14 18:31:57;;;;;;;1.13;0.98;;;;;;;8.79;89.37;98199.63;10466094;28;20039;-72
2023/10/14 18:37:07;;;;;;;1.42;0.57;;;;;;;8.72;90.26;98208.38;10473629;28;20160;-72
2023/10/14 18:42:09;;;;;;;3.85;1.17;;;;;;;8.71;90.37;98206.75;10389690;28;20049;-69
2023/10/14 18:47:15;;;;;;;3.00;0.73;;;;;;;8.71;90.27;98197.75;10393266;28;20046;-68
2023/10/14 18:52:17;;;;;;;0.40;0.40;;;;;;;8.68;89.82;98207.41;10396453;22;20054;-65
2023/10/14 18:57:20;;;;;;;2.22;0.63;;;;;;;8.59;90.57;98203.91;10518178;28;20044;-66
2023/10/14 19:02:23;;;;;;;5.05;0.73;;;;;;;8.62;91.07;98200.50;10520478;28;20048;-66
2023/10/14 19:07:25;;;;;;;5.05;1.10;;;;;;;8.63;90.70;98206.78;10514407;22;20040;-80
2023/10/14 19:12:28;;;;;;;2.25;0.50;;;;;;;8.66;90.83;98226.06;10493619;28;20423;-76
2023/10/14 19:17:30;;;;;;;3.90;0.70;;;;;;;8.62;90.10;98232.50;10488176;28;20052;-76
2023/10/14 19:22:33;;;;;;;2.10;0.50;;;;;;;8.61;90.92;98237.19;10493025;22;20857;-67
2023/10/14 19:27:37;;;;;;;0.90;0.60;;;;;;;8.58;90.45;98232.38;10510235;28;20045;-66
2023/10/14 19:32:39;;;;;;;2.17;0.50;;;;;;;8.51;90.28;98245.75;10515486;28;20537;-66
2023/10/14 19:37:41;;;;;;;2.10;0.68;;;;;;;8.58;89.66;98234.31;10505887;22;20448;-74
2023/10/14 19:42:45;;;;;;;0.57;0.50;;;;;;;8.54;89.28;98230.63;10491725;28;20135;-74
2023/10/14 19:47:48;;;;;;;0.85;0.50;;;;;;;8.51;88.62;98237.56;10497461;28;20044;-73
2023/10/14 19:52:52;;;;;;;2.47;0.55;;;;;;;8.52;88.69;98228.22;10479451;28;20040;-74
2023/10/14 19:57:59;;;;;;;0.35;0.28;;;;;;;8.52;88.87;98244.63;10489870;28;20912;-74
2023/10/14 20:03:03;;;;;;;2.73;0.60;;;;;;;8.49;88.32;98250.72;10492977;28;20040;-75
2023/10/14 20:08:12;;;;;;;3.80;0.85;;;;;;;8.44;88.84;98250.91;10490847;28;20044;-75
2023/10/14 20:13:18;;;;;;;2.45;0.68;;;;;;;8.45;88.57;98250.56;10476886;28;20047;-75
2023/10/14 20:18:21;;;;;;;2.35;0.63;;;;;;;8.36;89.11;98255.28;10476124;28;20040;-76
2023/10/14 20:23:23;;;;;;;1.55;0.57;;;;;;;8.26;89.30;98252.84;10440264;28;20136;-76
2023/10/14 20:28:27;;;;;;;2.65;0.70;;;;;;;8.15;90.05;98263.28;10472952;28;20637;-76
2023/10/14 20:33:29;;;;;;;3.15;0.60;;;;;;;8.16;90.01;98269.56;10508132;28;20050;-76
2023/10/14 20:38:31;;;;;;;1.60;0.50;;;;;;;8.21;89.63;98261.22;10519862;28;20060;-76
2023/10/14 20:43:34;;;;;;;1.85;0.60;;;;;;;8.24;90.19;98259.75;10499326;28;20032;-75
2023/10/14 20:48:39;;;;;;;0.25;0.25;;;;;;;8.17;89.62;98260.25;10479297;22;20064;-74
2023/10/14 20:53:43;;;;;;;4.97;0.82;;;;;;;8.18;90.24;98267.31;10474020;28;20549;-74
2023/10/14 20:58:46;;;;;;;3.75;0.60;;;;;;;8.18;88.99;98266.53;10470851;28;20044;-74
2023/10/14 21:03:52;;;;;;;2.72;0.65;;;;;;;8.15;89.70;98257.81;10511826;22;20053;-67
2023/10/14 21:08:56;;;;;;;1.48;0.30;;;;;;;8.22;89.28;98264.75;10504000;28;20044;-66
2023/10/14 21:13:59;;;;;;;2.72;0.50;;;;;;;8.16;89.45;98259.44;10503923;28;20044;-65
2023/10/14 21:19:02;;;;;;;1.58;0.68;;;;;;;8.18;89.04;98253.66;10569832;22;20589;-71
2023/10/14 21:24:06;;;;;;;2.20;0.73;;;;;;;8.18;88.93;98255.59;10573390;28;20027;-69
2023/10/14 21:29:08;;;;;;;2.40;0.63;;;;;;;8.12;89.22;98252.19;10569918;28;20051;-68
2023/10/14 21:34:14;;;;;;;1.30;0.35;;;;;;;8.06;89.63;98243.38;10527337;22;20063;-66
2023/10/14 21:39:18;;;;;;;4.68;0.43;;;;;;;8.01;89.65;98240.81;10476837;28;20063;-66
2023/10/14 21:44:20;;;;;;;3.50;0.70;;;;;;;8.00;90.21;98252.88;10461953;28;20043;-66
2023/10/14 21:49:25;;;;;;;0.68;0.40;;;;;;;7.97;89.63;98250.78;10546381;23;20048;-65
2023/10/14 21:54:28;;;;;;;2.53;0.85;;;;;;;7.94;89.14;98251.41;10545753;28;20039;-64
2023/10/14 21:59:33;;;;;;;3.03;0.50;;;;;;;7.94;89.27;98251.41;10540700;28;20045;-65
2023/10/14 22:04:37;;;;;;;3.13;0.70;;;;;;;8.01;88.76;98242.75;10550616;22;20063;-75
2023/10/14 22:09:40;;;;;;;3.60;0.93;;;;;;;8.00;89.14;98260.28;10535977;28;20044;-75
2023/10/14 22:14:43;;;;;;;3.25;0.80;;;;;;;7.97;89.54;98258.97;10535569;28;20036;-75
2023/10/14 22:19:47;;;;;;;2.50;0.65;;;;;;;8.00;88.62;98249.34;10489363;23;20052;-75
2023/10/14 22:24:49;;;;;;;0.93;0.50;;;;;;;8.12;88.01;98247.53;10449601;28;20029;-75
2023/10/14 22:29:52;;;;;;;3.45;0.57;;;;;;;8.24;87.08;98243.34;10467931;28;20049;-77
2023/10/14 22:34:54;;;;;;;1.80;0.45;;;;;;;8.32;85.93;98235.13;10462143;28;20043;-77
2023/10/14 22:40:02;;;;;;;1.13;0.50;;;;;;;8.34;86.18;98237.59;10475218;28;20051;-76
2023/10/14 22:45:06;;;;;;;3.17;0.90;;;;;;;8.38;85.05;98246.75;10466350;28;20041;-77
2023/10/14 22:50:10;;;;;;;1.88;0.47;;;;;;;8.35;85.10;98247.41;10484396;28;20531;-76
2023/10/14 22:55:13;;;;;;;4.15;1.40;;;;;;;8.36;85.52;98252.53;10434072;28;20037;-76
2023/10/14 23:00:20;;;;;;;4.13;0.70;;;;;;;8.34;84.36;98252.06;10450179;28;20042;-76
2023/10/14 23:05:28;;;;;;;2.05;0.70;;;;;;;8.40;83.94;98244.47;10446470;28;20029;-76
2023/10/14 23:10:30;;;;;;;3.13;0.70;;;;;;;8.44;83.59;98242.69;10453584;28;20045;-76
2023/10/14 23:15:33;;;;;;;2.10;0.68;;;;;;;8.40;83.76;98236.28;10454730;28;20448;-76
2023/10/14 23:20:35;;;;;;;3.25;0.85;;;;;;;8.34;84.25;98243.88;10338034;28;20057;-76
2023/10/14 23:25:37;;;;;;;1.25;0.50;;;;;;;8.37;83.76;98220.53;10379489;28;20045;-76
2023/10/14 23:30:39;;;;;;;5.35;0.70;;;;;;;8.36;83.88;98236.13;10385280;28;20041;-76
2023/10/14 23:35:43;;;;;;;4.32;1.88;;;;;;;8.34;84.60;98246.59;10353688;28;20465;-77
2023/10/14 23:40:46;;;;;;;3.08;0.90;;;;;;;8.36;84.89;98238.06;10315882;28;20402;-77
2023/10/14 23:45:48;;;;;;;2.60;0.50;;;;;;;8.35;83.30;98233.72;10379208;28;20409;-76
2023/10/14 23:50:50;;;;;;;2.40;0.73;;;;;;;8.35;83.46;98234.53;10342014;28;20043;-76
2023/10/14 23:55:55;;;;;;;3.05;0.50;;;;;;;8.38;83.61;98244.81;10378098;28;20069;-76
